Time;durP1;ratioP1;P1;durP2;ratioP2;P2;SDS_P1;SDS_P2;PMS_P1;PMS_P2;Temp;Humidity;BMP_temperature;BMP_pressure;BME280_temperature;BME280_humidity;BME280_pressure;Samples;Min_cycle;Max_cycle;Signal;HPM_P1;HPM_P2
2022/08/12 00:43:28;;;;;;;5.70;4.70;;;15.60;72.80;;;;;;5090706;28;20430;-62
2022/08/12 00:48:40;;;;;;;6.97;5.00;;;15.50;72.90;;;;;;5091697;28;21070;-62
2022/08/12 00:51:07;;;;;;;9.23;5.30;;;15.50;72.90;;;;;;5087571;28;20422;-62
2022/08/12 00:53:33;;;;;;;6.50;5.07;;;15.50;73.60;;;;;;5084449;28;20490;-62
2022/08/12 00:56:00;;;;;;;5.30;4.90;;;15.40;74.40;;;;;;5089297;28;20512;-62
2022/08/12 00:58:28;;;;;;;6.30;5.27;;;15.40;74.60;;;;;;5092217;28;20408;-62
2022/08/12 01:01:03;;;;;;;7.40;5.00;;;15.40;74.90;;;;;;5082536;28;20511;-62
2022/08/12 01:11:54;;;;;;;6.00;5.40;;;15.20;76.10;;;;;;5090562;28;20461;-62
2022/08/12 01:14:24;;;;;;;6.43;5.17;;;15.20;76.00;;;;;;5088149;28;20488;-61
2022/08/12 01:16:51;;;;;;;5.60;5.03;;;15.20;76.70;;;;;;5091642;28;20428;-62
2022/08/12 01:19:20;;;;;;;5.80;5.13;;;15.10;77.30;;;;;;5078115;28;20417;-62
2022/08/12 01:21:48;;;;;;;6.43;5.17;;;15.00;77.70;;;;;;5087615;28;20468;-62
2022/08/12 01:24:55;;;;;;;6.63;5.93;;;15.00;78.20;;;;;;5084796;28;21155;-62
2022/08/12 01:27:22;;;;;;;11.03;5.50;;;14.90;79.20;;;;;;5089264;28;20422;-62
2022/08/12 01:29:50;;;;;;;10.67;5.47;;;14.90;79.70;;;;;;5085082;28;20411;-62
2022/08/12 01:32:19;;;;;;;6.33;5.50;;;14.90;80.50;;;;;;5092845;28;20463;-62
2022/08/12 01:35:12;;;;;;;6.43;5.00;;;14.80;81.50;;;;;;5080608;28;20428;-62
2022/08/12 01:38:00;;;;;;;6.37;5.20;;;14.80;81.70;;;;;;5092146;28;20423;-62
2022/08/12 01:40:29;;;;;;;5.97;5.37;;;14.70;82.40;;;;;;5085846;28;20524;-62
2022/08/12 01:43:07;;;;;;;5.13;4.63;;;14.70;83.40;;;;;;5083469;28;20525;-62
2022/08/12 01:45:33;;;;;;;5.80;5.30;;;14.70;83.80;;;;;;5088119;28;20427;-62
2022/08/12 01:48:04;;;;;;;8.80;5.40;;;14.70;84.50;;;;;;5083232;28;20510;-62
2022/08/12 01:50:56;;;;;;;6.83;5.00;;;14.60;84.20;;;;;;5083390;28;20424;-62
2022/08/12 01:53:24;;;;;;;5.80;4.80;;;14.60;84.30;;;;;;5061056;28;20479;-62
2022/08/12 01:55:51;;;;;;;8.90;5.23;;;14.60;83.80;;;;;;5090913;28;20419;-62
2022/08/12 02:01:29;;;;;;;5.87;5.27;;;14.50;84.20;;;;;;5087283;28;20436;-62
2022/08/12 02:13:39;;;;;;;9.90;5.83;;;14.30;86.40;;;;;;5085806;28;20458;-62
2022/08/12 02:16:16;;;;;;;6.20;5.47;;;14.30;87.00;;;;;;5076079;28;20474;-62
2022/08/12 02:19:00;;;;;;;9.40;5.67;;;14.30;87.90;;;;;;5089504;28;20448;-62
2022/08/12 02:21:45;;;;;;;6.67;5.13;;;14.30;88.40;;;;;;5084987;28;20393;-61
2022/08/12 02:24:14;;;;;;;7.73;5.50;;;14.30;88.90;;;;;;5076957;28;20987;-62
2022/08/12 02:26:45;;;;;;;6.40;5.20;;;14.20;88.80;;;;;;5086789;28;20437;-61
2022/08/12 02:29:12;;;;;;;5.93;5.27;;;14.20;88.80;;;;;;5076175;28;20427;-62
2022/08/12 02:31:40;;;;;;;7.03;5.00;;;14.20;89.10;;;;;;5087460;28;20422;-62
2022/08/12 02:34:08;;;;;;;5.97;5.37;;;14.20;89.70;;;;;;5088086;28;20538;-62
2022/08/12 02:36:37;;;;;;;5.53;5.03;;;14.10;90.30;;;;;;5071764;28;20954;-62
2022/08/12 02:39:05;;;;;;;7.00;5.40;;;14.10;90.90;;;;;;5078348;28;20419;-62
2022/08/12 02:41:33;;;;;;;6.50;5.40;;;14.00;91.30;;;;;;5082941;28;20889;-62
2022/08/12 02:44:02;;;;;;;6.33;5.50;;;14.00;91.30;;;;;;5081649;28;20451;-61
2022/08/12 02:46:31;;;;;;;6.07;5.37;;;13.90;91.50;;;;;;5081742;28;20965;-62
2022/08/12 02:48:59;;;;;;;7.43;5.37;;;13.90;91.80;;;;;;5083996;28;20936;-62
2022/08/12 02:51:31;;;;;;;7.83;6.17;;;13.90;91.80;;;;;;5083259;28;21122;-62
2022/08/12 02:53:59;;;;;;;6.97;5.70;;;13.90;91.70;;;;;;5082322;28;21109;-61
2022/08/12 02:56:27;;;;;;;7.13;6.33;;;13.80;92.00;;;;;;5093345;28;20430;-61
2022/08/12 02:58:54;;;;;;;7.73;5.90;;;13.80;92.50;;;;;;5082937;28;20799;-62
2022/08/12 03:01:34;;;;;;;5.43;4.93;;;13.80;92.50;;;;;;5091172;28;20885;-62
2022/08/12 03:04:06;;;;;;;8.57;5.20;;;13.80;92.60;;;;;;5087844;28;20528;-62
2022/08/12 03:06:47;;;;;;;6.23;5.70;;;13.70;92.70;;;;;;5088615;28;20412;-61
2022/08/12 03:09:15;;;;;;;6.37;5.20;;;13.70;93.00;;;;;;5080866;28;20519;-61
2022/08/12 03:12:03;;;;;;;6.90;5.30;;;13.60;93.30;;;;;;5081907;28;21057;-62
2022/08/12 03:14:34;;;;;;;8.97;6.53;;;13.60;93.30;;;;;;5091708;28;20424;-62
2022/08/12 03:17:26;;;;;;;5.80;5.30;;;13.60;93.60;;;;;;5081086;28;20424;-61
2022/08/12 03:19:53;;;;;;;5.77;5.27;;;13.60;93.80;;;;;;5076348;28;20943;-61
2022/08/12 03:22:22;;;;;;;6.10;5.50;;;13.50;93.70;;;;;;5091784;28;20503;-62
2022/08/12 03:24:48;;;;;;;6.73;5.13;;;13.50;94.10;;;;;;5087160;28;20450;-62
2022/08/12 03:27:15;;;;;;;6.53;5.87;;;13.50;94.40;;;;;;5082653;28;20485;-61
2022/08/12 03:29:46;;;;;;;6.33;5.73;;;13.50;94.40;;;;;;5085720;28;20426;-62
2022/08/12 03:32:13;;;;;;;9.10;5.63;;;13.40;94.70;;;;;;5085188;28;20546;-61
2022/08/12 03:34:40;;;;;;;7.07;5.30;;;13.40;95.00;;;;;;5088399;28;20534;-61
2022/08/12 03:37:07;;;;;;;6.67;6.00;;;13.40;95.20;;;;;;5089273;28;20400;-62
2022/08/12 03:42:05;;;;;;;9.70;5.90;;;13.30;95.30;;;;;;5083923;28;20967;-61
2022/08/12 04:01:56;;;;;;;8.63;5.40;;;13.10;96.20;;;;;;5039787;28;1109737;-61
2022/08/12 04:04:33;;;;;;;6.50;5.87;;;13.10;96.30;;;;;;5081628;28;20201;-62
2022/08/12 04:07:08;;;;;;;6.10;5.47;;;13.10;96.20;;;;;;5082582;28;20407;-61
2022/08/12 04:09:36;;;;;;;8.00;6.00;;;13.00;96.20;;;;;;5070729;28;20436;-60
2022/08/12 04:14:48;;;;;;;6.23;5.57;;;13.00;96.40;;;;;;5082230;28;20438;-60
2022/08/12 04:17:15;;;;;;;10.07;5.80;;;12.90;96.50;;;;;;5083061;28;20504;-61
2022/08/12 04:19:41;;;;;;;9.80;5.97;;;12.90;96.50;;;;;;5074217;28;20427;-61
2022/08/12 04:22:08;;;;;;;6.70;5.97;;;12.90;97.00;;;;;;5086840;28;21108;-61
2022/08/12 04:24:34;;;;;;;6.50;5.80;;;12.90;96.90;;;;;;5084188;28;21041;-61
2022/08/12 04:27:00;;;;;;;7.50;5.77;;;12.90;97.20;;;;;;5087937;28;20420;-61
2022/08/12 04:29:26;;;;;;;7.30;6.20;;;12.90;97.10;;;;;;5080410;28;20303;-62
2022/08/12 04:31:54;;;;;;;8.23;6.10;;;12.90;97.30;;;;;;5080337;28;20557;-61
2022/08/12 04:34:21;;;;;;;12.40;6.80;;;12.90;97.70;;;;;;5084651;28;20200;-61
2022/08/12 04:36:47;;;;;;;7.07;5.93;;;12.90;97.30;;;;;;5084014;28;20423;-61
2022/08/12 04:39:13;;;;;;;6.80;5.60;;;12.80;97.50;;;;;;5072013;28;20858;-61
2022/08/12 04:41:41;;;;;;;11.53;6.50;;;12.80;97.60;;;;;;5089707;28;20178;-61
2022/08/12 04:44:07;;;;;;;7.20;6.23;;;12.80;97.70;;;;;;5086307;28;20526;-61
2022/08/12 04:46:33;;;;;;;6.87;6.10;;;12.80;97.90;;;;;;5081623;28;20439;-61
2022/08/12 04:49:01;;;;;;;8.77;6.77;;;12.80;98.10;;;;;;5081019;28;20437;-61
2022/08/12 04:51:27;;;;;;;9.13;6.27;;;12.80;98.30;;;;;;5080729;28;20431;-61
2022/08/12 04:53:53;;;;;;;7.60;6.33;;;12.90;98.40;;;;;;5087716;28;20464;-61
2022/08/12 04:56:18;;;;;;;8.20;6.37;;;12.90;98.30;;;;;;5084131;28;20432;-61
2022/08/12 04:58:44;;;;;;;8.57;5.90;;;12.90;98.00;;;;;;5088342;28;20308;-61
2022/08/12 05:01:11;;;;;;;7.67;5.77;;;12.90;97.60;;;;;;5085237;28;20212;-61
2022/08/12 05:03:36;;;;;;;6.93;6.23;;;13.00;97.70;;;;;;5089628;28;20678;-62
2022/08/12 05:06:04;;;;;;;14.60;6.20;;;13.00;97.60;;;;;;5095799;28;20437;-61
2022/08/12 05:08:30;;;;;;;6.90;6.20;;;13.10;97.60;;;;;;5090641;28;20236;-61
2022/08/12 05:10:56;;;;;;;7.60;6.30;;;13.20;97.00;;;;;;5083471;28;20423;-61
2022/08/12 05:13:26;;;;;;;7.97;6.37;;;13.20;96.20;;;;;;5085492;28;20460;-61
2022/08/12 05:15:52;;;;;;;6.93;6.00;;;13.30;95.90;;;;;;5076669;28;20420;-61
2022/08/12 05:18:19;;;;;;;9.63;6.13;;;13.40;96.10;;;;;;5095526;28;20478;-61
2022/08/12 05:20:47;;;;;;;6.90;6.20;;;13.50;95.30;;;;;;5084157;28;20937;-61
2022/08/12 05:23:18;;;;;;;7.10;6.00;;;13.60;94.80;;;;;;5087486;28;20439;-61
2022/08/12 05:25:48;;;;;;;6.40;5.80;;;13.70;94.50;;;;;;5083810;28;20440;-61
2022/08/12 05:28:15;;;;;;;7.80;6.07;;;13.80;94.20;;;;;;5089521;28;20940;-61
2022/08/12 05:30:42;;;;;;;7.90;5.73;;;13.80;94.00;;;;;;5091103;28;20977;-61
2022/08/12 05:33:09;;;;;;;6.87;5.43;;;13.90;93.50;;;;;;5100237;28;20483;-61
2022/08/12 05:35:39;;;;;;;6.77;6.07;;;14.00;93.50;;;;;;5084388;28;20454;-61
2022/08/12 05:41:04;;;;;;;8.60;6.20;;;14.30;92.00;;;;;;5086590;28;20426;-61
2022/08/12 05:43:33;;;;;;;7.20;5.97;;;14.30;90.70;;;;;;5075367;28;21024;-61
2022/08/12 05:45:58;;;;;;;10.33;5.67;;;14.40;90.30;;;;;;5091081;28;21106;-61
2022/08/12 05:48:24;;;;;;;6.00;5.40;;;14.50;90.50;;;;;;5088515;28;20427;-61
2022/08/12 05:50:51;;;;;;;8.13;6.17;;;14.60;90.10;;;;;;5084003;28;20251;-60
2022/08/12 05:53:17;;;;;;;8.40;7.40;;;14.70;89.90;;;;;;5085975;28;20201;-61
2022/08/12 05:55:43;;;;;;;8.30;5.97;;;14.80;88.90;;;;;;5082137;28;20466;-61
2022/08/12 05:58:09;;;;;;;6.53;5.93;;;14.90;90.00;;;;;;5069871;28;20181;-60
2022/08/12 06:00:35;;;;;;;9.33;6.20;;;15.00;89.50;;;;;;5083464;28;20178;-61
2022/08/12 06:03:03;;;;;;;8.00;5.67;;;15.10;89.30;;;;;;5091258;28;20209;-61
2022/08/12 06:05:34;;;;;;;5.93;5.33;;;15.20;89.30;;;;;;5094285;28;21069;-61
2022/08/12 06:08:02;;;;;;;7.07;5.60;;;15.30;89.00;;;;;;5089664;28;20862;-62
2022/08/12 06:10:29;;;;;;;6.43;4.70;;;15.30;86.30;;;;;;5087546;28;20416;-61
2022/08/12 06:12:57;;;;;;;10.60;5.57;;;15.40;83.80;;;;;;5080070;28;20472;-61
2022/08/12 06:15:23;;;;;;;8.30;5.20;;;15.40;81.90;;;;;;5084434;28;20490;-61
2022/08/12 06:17:49;;;;;;;8.30;5.70;;;15.50;80.70;;;;;;5083193;28;20415;-61
2022/08/12 06:20:15;;;;;;;5.20;4.70;;;15.50;80.50;;;;;;5084051;28;20763;-61
2022/08/12 06:22:46;;;;;;;5.17;4.67;;;15.60;80.30;;;;;;5090797;28;20212;-62
2022/08/12 06:25:15;;;;;;;9.00;5.80;;;15.70;80.30;;;;;;5068291;28;20519;-61
2022/08/12 06:27:47;;;;;;;7.50;5.33;;;15.80;80.00;;;;;;5078669;28;20439;-62
2022/08/12 06:30:19;;;;;;;7.87;5.40;;;15.90;80.20;;;;;;5080950;28;20789;-61
2022/08/12 06:32:46;;;;;;;9.30;5.17;;;16.00;79.00;;;;;;5082926;28;20474;-63
2022/08/12 06:35:12;;;;;;;7.40;4.80;;;16.10;77.60;;;;;;5076794;28;20519;-62
2022/08/12 06:37:44;;;;;;;5.07;4.57;;;16.20;76.70;;;;;;5083829;28;20424;-62
2022/08/12 06:40:11;;;;;;;5.60;4.40;;;16.40;76.00;;;;;;5075946;28;20474;-62
2022/08/12 06:42:47;;;;;;;11.03;4.30;;;16.50;74.60;;;;;;5073190;28;20515;-62
2022/08/12 06:45:14;;;;;;;4.67;4.20;;;16.60;73.30;;;;;;5078140;28;20427;-63
2022/08/12 06:47:41;;;;;;;5.37;4.50;;;16.70;72.30;;;;;;5078006;28;20423;-62
2022/08/12 06:50:07;;;;;;;5.10;4.07;;;16.80;70.70;;;;;;5081330;28;20515;-63
2022/08/12 06:52:33;;;;;;;8.07;4.90;;;17.00;69.70;;;;;;5067493;28;20460;-62
2022/08/12 06:54:59;;;;;;;9.03;3.90;;;17.10;68.70;;;;;;5074341;28;20416;-62
2022/08/12 06:57:26;;;;;;;4.20;3.80;;;17.20;67.00;;;;;;5067984;28;20177;-62
2022/08/12 06:59:53;;;;;;;4.00;3.63;;;17.40;65.70;;;;;;5074512;28;20652;-63
2022/08/12 07:02:21;;;;;;;11.87;4.07;;;17.70;64.80;;;;;;5076314;28;20444;-63
2022/08/12 07:04:48;;;;;;;5.13;3.57;;;17.90;63.10;;;;;;5078271;28;20447;-63
2022/08/12 07:07:14;;;;;;;5.97;3.47;;;18.20;61.90;;;;;;5081162;28;20950;-63
2022/08/12 07:09:41;;;;;;;7.83;3.57;;;18.40;60.40;;;;;;5086677;28;21104;-62
2022/08/12 07:12:15;;;;;;;7.07;3.57;;;18.60;59.50;;;;;;5073119;28;20509;-62
2022/08/12 07:14:41;;;;;;;6.83;3.57;;;18.80;58.20;;;;;;5071914;28;20852;-62
2022/08/12 07:17:07;;;;;;;4.03;3.63;;;18.90;57.50;;;;;;5069928;28;20435;-62
2022/08/12 07:19:33;;;;;;;7.97;4.10;;;19.00;56.70;;;;;;5071076;28;20440;-62
2022/08/12 07:22:05;;;;;;;3.83;3.40;;;19.10;56.30;;;;;;5071175;28;20620;-63
2022/08/12 07:24:31;;;;;;;6.60;3.30;;;19.20;55.70;;;;;;5074770;28;20296;-62
2022/08/12 07:26:57;;;;;;;7.03;3.50;;;19.30;55.50;;;;;;5077040;28;20798;-62
2022/08/12 07:29:27;;;;;;;5.80;3.60;;;19.30;54.50;;;;;;5074455;28;20436;-63
2022/08/12 07:31:55;;;;;;;8.27;3.20;;;19.40;54.40;;;;;;5071171;28;20467;-62
2022/08/12 07:34:22;;;;;;;4.43;3.10;;;19.50;53.80;;;;;;5071398;28;20884;-62
2022/08/12 07:36:47;;;;;;;3.70;3.23;;;19.60;53.50;;;;;;5072335;28;20424;-62
2022/08/12 07:39:13;;;;;;;4.80;3.00;;;19.70;53.50;;;;;;5069248;28;20425;-62
2022/08/12 07:41:39;;;;;;;4.20;2.90;;;19.80;53.10;;;;;;5071286;28;20258;-62
2022/08/12 07:44:07;;;;;;;4.87;2.93;;;19.90;53.10;;;;;;5071196;28;20198;-62
2022/08/12 07:46:39;;;;;;;5.57;2.70;;;20.00;53.20;;;;;;5069469;28;21086;-62
2022/08/12 07:49:13;;;;;;;3.17;2.87;;;20.10;52.80;;;;;;5071794;28;20444;-62
2022/08/12 07:51:39;;;;;;;5.07;2.77;;;20.20;52.20;;;;;;5073659;28;20568;-61
2022/08/12 07:54:08;;;;;;;3.43;2.80;;;20.30;51.60;;;;;;5070506;28;20456;-62
2022/08/12 07:56:37;;;;;;;5.00;3.00;;;20.40;51.30;;;;;;5068924;28;20520;-62
2022/08/12 07:59:03;;;;;;;3.03;2.60;;;20.60;51.20;;;;;;5070225;28;20460;-62
2022/08/12 08:01:29;;;;;;;4.17;2.90;;;20.70;50.80;;;;;;5073090;28;20436;-58
2022/08/12 08:06:41;;;;;;;5.80;3.40;;;20.90;49.50;;;;;;5073994;28;20435;-58
2022/08/12 08:09:09;;;;;;;4.63;2.77;;;21.00;48.80;;;;;;5077234;28;20816;-59
2022/08/12 08:14:19;;;;;;;5.10;3.33;;;21.20;48.60;;;;;;5073268;28;20971;-59
2022/08/12 08:16:47;;;;;;;3.37;3.07;;;21.30;49.00;;;;;;5074597;28;20431;-60
2022/08/12 08:19:22;;;;;;;7.97;2.90;;;21.30;48.90;;;;;;5077483;28;20194;-58
2022/08/12 08:21:49;;;;;;;7.90;3.00;;;21.40;48.70;;;;;;5077380;28;20424;-60
2022/08/12 08:24:15;;;;;;;4.43;2.80;;;21.50;48.30;;;;;;5078093;28;20451;-58
2022/08/12 08:26:46;;;;;;;3.07;2.70;;;21.60;48.60;;;;;;5073012;28;20420;-58
2022/08/12 08:29:13;;;;;;;3.03;2.70;;;21.70;48.10;;;;;;5076879;28;20461;-59
2022/08/12 08:31:42;;;;;;;4.70;2.73;;;21.80;47.20;;;;;;5077668;28;20509;-56
2022/08/12 08:34:09;;;;;;;3.83;2.97;;;21.90;47.00;;;;;;5076007;28;20445;-55
2022/08/12 08:36:35;;;;;;;2.93;2.73;;;22.00;47.30;;;;;;5079769;28;20428;-55
2022/08/12 08:39:03;;;;;;;5.23;2.50;;;22.10;47.00;;;;;;5082987;28;20484;-56
2022/08/12 08:44:13;;;;;;;7.27;2.83;;;22.20;46.10;;;;;;5082548;28;20470;-56
2022/08/12 08:46:39;;;;;;;4.97;2.90;;;22.30;46.10;;;;;;5080252;28;20601;-55
2022/08/12 08:49:05;;;;;;;5.27;2.90;;;22.40;45.70;;;;;;5076684;28;20249;-57
2022/08/12 08:51:31;;;;;;;3.93;2.70;;;22.50;46.00;;;;;;5076234;28;20543;-56
2022/08/12 08:53:57;;;;;;;5.60;2.80;;;22.60;46.00;;;;;;5076880;28;20839;-56
2022/08/12 08:56:23;;;;;;;6.00;2.90;;;22.70;45.90;;;;;;5079019;28;20197;-58
2022/08/12 08:58:49;;;;;;;6.30;2.80;;;22.80;45.20;;;;;;5080381;28;20182;-57
2022/08/12 09:01:19;;;;;;;3.00;2.53;;;22.80;43.70;;;;;;5081990;28;20494;-56
2022/08/12 09:03:45;;;;;;;2.57;2.37;;;22.90;43.30;;;;;;5079672;28;20204;-57
2022/08/12 09:06:13;;;;;;;3.03;2.60;;;22.90;44.30;;;;;;5075765;28;20821;-57
2022/08/12 09:08:39;;;;;;;5.70;2.40;;;23.00;43.60;;;;;;5083340;28;20319;-57
2022/08/12 09:13:49;;;;;;;3.13;2.20;;;23.20;42.30;;;;;;5079813;28;20481;-57
2022/08/12 09:16:16;;;;;;;4.43;2.47;;;23.20;41.10;;;;;;5083299;28;20833;-57
2022/08/12 09:18:42;;;;;;;3.33;2.20;;;23.20;40.70;;;;;;5081781;28;20676;-56
2022/08/12 09:21:11;;;;;;;4.93;2.50;;;23.30;40.80;;;;;;5082035;28;20435;-57
2022/08/12 09:23:36;;;;;;;3.00;2.17;;;23.40;41.10;;;;;;5082431;28;20498;-57
2022/08/12 09:26:02;;;;;;;3.07;2.17;;;23.40;40.30;;;;;;5077265;28;21002;-58
2022/08/12 09:28:28;;;;;;;3.67;2.50;;;23.50;39.90;;;;;;5080711;28;20185;-56
2022/08/12 09:30:58;;;;;;;3.00;2.20;;;23.60;40.00;;;;;;5076025;28;20446;-55
2022/08/12 09:33:27;;;;;;;4.80;2.30;;;23.70;40.30;;;;;;5077708;28;20804;-57
2022/08/12 09:35:53;;;;;;;9.17;2.77;;;23.80;39.60;;;;;;5075139;28;20430;-57
2022/08/12 09:38:19;;;;;;;3.00;2.30;;;23.90;39.70;;;;;;5077830;28;20443;-58
2022/08/12 09:40:46;;;;;;;3.63;2.60;;;24.00;39.50;;;;;;5079775;28;20428;-57
2022/08/12 09:46:01;;;;;;;2.90;2.07;;;24.10;38.80;;;;;;5081363;28;20427;-58
2022/08/12 09:48:28;;;;;;;6.00;2.80;;;24.20;39.00;;;;;;5079017;28;20443;-58
2022/08/12 09:50:54;;;;;;;6.20;2.57;;;24.20;39.10;;;;;;5080474;28;20178;-57
2022/08/12 09:53:24;;;;;;;5.13;2.23;;;24.30;38.50;;;;;;5073195;28;20464;-57
2022/08/12 09:55:55;;;;;;;6.43;2.03;;;24.30;38.00;;;;;;5085444;28;20506;-57
2022/08/12 09:58:27;;;;;;;4.47;2.50;;;24.40;38.00;;;;;;5077871;28;20978;-57
2022/08/12 10:00:54;;;;;;;6.80;2.30;;;24.40;38.10;;;;;;5081439;28;20527;-56
2022/08/12 10:03:20;;;;;;;8.50;2.60;;;24.50;38.60;;;;;;5075963;28;20491;-58
2022/08/12 10:05:47;;;;;;;12.63;1.83;;;24.70;38.20;;;;;;5083698;28;20816;-58
2022/08/12 10:08:16;;;;;;;3.40;2.00;;;24.80;37.90;;;;;;5078618;28;20189;-56
2022/08/12 10:13:41;;;;;;;6.63;2.70;;;24.90;36.90;;;;;;5073406;28;20493;-56
2022/08/12 10:16:21;;;;;;;2.90;2.00;;;25.00;36.70;;;;;;5078308;28;20522;-57
2022/08/12 10:19:02;;;;;;;2.10;1.93;;;25.10;36.70;;;;;;5075345;28;20534;-56
2022/08/12 10:21:39;;;;;;;2.40;2.20;;;25.10;36.50;;;;;;5076847;28;20756;-57
2022/08/12 10:24:05;;;;;;;4.50;2.20;;;25.10;36.70;;;;;;5076751;28;20953;-56
2022/08/12 10:32:02;;;;;;;1.77;1.63;;;25.30;36.60;;;;;;5080428;28;20461;-57
2022/08/12 10:34:28;;;;;;;5.40;2.20;;;25.40;36.10;;;;;;5079294;28;20450;-57
2022/08/12 10:36:57;;;;;;;2.40;2.20;;;25.50;36.20;;;;;;5077311;28;20878;-57
2022/08/12 10:39:24;;;;;;;2.67;2.30;;;25.60;36.20;;;;;;5078738;28;20425;-59
2022/08/12 10:44:35;;;;;;;3.13;2.17;;;25.80;37.20;;;;;;5076745;28;20474;-57
2022/08/12 10:47:02;;;;;;;3.47;2.00;;;25.90;35.50;;;;;;5075737;28;20461;-57
2022/08/12 10:49:33;;;;;;;2.40;1.90;;;25.90;34.90;;;;;;5078290;28;20427;-57
2022/08/12 10:52:01;;;;;;;2.43;1.83;;;25.90;36.30;;;;;;5076770;28;20419;-57
2022/08/12 10:54:27;;;;;;;3.07;2.20;;;26.00;38.00;;;;;;5077758;28;20492;-57
2022/08/12 10:56:54;;;;;;;3.33;2.27;;;26.10;36.80;;;;;;5081497;28;20438;-57
2022/08/12 10:59:20;;;;;;;2.70;2.00;;;26.20;36.70;;;;;;5073934;28;20416;-58
2022/08/12 11:01:52;;;;;;;3.60;2.10;;;26.30;35.20;;;;;;5079891;28;20502;-58
2022/08/12 11:04:18;;;;;;;2.97;2.13;;;26.40;35.40;;;;;;5083267;28;20204;-58
2022/08/12 11:06:49;;;;;;;2.70;1.73;;;26.50;35.70;;;;;;5080383;28;20493;-58
2022/08/12 11:09:18;;;;;;;3.10;2.30;;;26.50;34.80;;;;;;5079516;28;20182;-58
2022/08/12 11:11:48;;;;;;;2.33;2.13;;;26.60;34.70;;;;;;5081011;28;20432;-57
2022/08/12 11:14:27;;;;;;;4.90;2.43;;;26.70;34.50;;;;;;5077200;28;20611;-57
2022/08/12 11:17:00;;;;;;;2.70;2.50;;;26.80;33.50;;;;;;5075017;28;21070;-58
2022/08/12 11:19:31;;;;;;;3.70;2.43;;;26.90;33.60;;;;;;5080422;28;20490;-57
2022/08/12 11:21:57;;;;;;;2.67;2.10;;;26.90;34.80;;;;;;5079124;28;20673;-59
2022/08/12 11:24:24;;;;;;;2.93;2.00;;;27.10;34.90;;;;;;5079600;28;20205;-57
2022/08/12 11:26:50;;;;;;;3.33;2.20;;;27.20;34.90;;;;;;5075290;28;20181;-57
2022/08/12 11:29:21;;;;;;;3.93;1.90;;;27.30;33.90;;;;;;5079090;28;20770;-57
2022/08/12 11:31:48;;;;;;;4.53;2.03;;;27.40;33.50;;;;;;5082480;28;20252;-56
2022/08/12 11:34:15;;;;;;;4.30;2.50;;;27.50;32.80;;;;;;5076177;28;20211;-57
2022/08/12 11:37:03;;;;;;;5.80;2.80;;;27.60;34.10;;;;;;5075873;28;20178;-56
2022/08/12 11:39:31;;;;;;;2.33;2.17;;;27.70;34.00;;;;;;5078748;28;20756;-57
2022/08/12 11:41:56;;;;;;;4.47;2.20;;;27.80;34.30;;;;;;5080384;28;20290;-56
2022/08/12 11:44:22;;;;;;;2.90;2.13;;;27.90;34.30;;;;;;5077305;28;20252;-57
2022/08/12 11:46:49;;;;;;;4.67;1.90;;;28.00;34.10;;;;;;5077547;28;20234;-58
2022/08/12 11:49:15;;;;;;;2.77;1.80;;;28.10;34.30;;;;;;5079281;28;20846;-58
2022/08/12 11:51:41;;;;;;;2.83;1.90;;;28.10;33.80;;;;;;5076043;28;20174;-58
2022/08/12 11:54:06;;;;;;;2.63;2.20;;;28.20;33.00;;;;;;5074830;28;20658;-58
2022/08/12 11:56:33;;;;;;;9.10;2.20;;;28.30;32.50;;;;;;5073375;28;20174;-57
2022/08/12 11:58:58;;;;;;;2.07;1.97;;;28.30;32.10;;;;;;5078472;28;20181;-56
2022/08/12 12:01:24;;;;;;;3.20;2.37;;;28.40;32.70;;;;;;5076671;28;20190;-58
2022/08/12 12:03:50;;;;;;;2.10;1.73;;;28.50;33.30;;;;;;5077136;28;20527;-56
2022/08/12 12:06:19;;;;;;;5.17;1.70;;;28.70;33.50;;;;;;5080734;28;20177;-57
2022/08/12 12:08:45;;;;;;;2.20;1.77;;;28.80;32.30;;;;;;5072212;28;20231;-59
2022/08/12 12:11:11;;;;;;;3.57;2.20;;;28.80;31.40;;;;;;5074579;28;20188;-57
2022/08/12 12:13:36;;;;;;;3.87;1.93;;;29.00;32.40;;;;;;5082594;28;20284;-58
2022/08/12 12:16:02;;;;;;;3.25;1.80;;;29.10;33.20;;;;;;5078440;28;20177;-57
2022/08/12 12:18:29;;;;;;;3.60;2.30;;;29.20;32.40;;;;;;5078535;28;20170;-57
2022/08/12 12:20:57;;;;;;;3.85;1.85;;;29.20;32.10;;;;;;5076416;28;20200;-58
2022/08/12 12:23:23;;;;;;;3.25;1.73;;;29.20;30.80;;;;;;5080968;28;20193;-59
2022/08/12 12:25:49;;;;;;;3.53;2.35;;;29.20;29.90;;;;;;5082351;28;20193;-58
2022/08/12 12:28:15;;;;;;;5.43;1.80;;;29.30;30.60;;;;;;5081884;28;20279;-58
2022/08/12 12:30:41;;;;;;;2.40;1.77;;;29.40;31.10;;;;;;5079314;28;20831;-58
2022/08/12 12:33:08;;;;;;;3.28;2.20;;;29.50;30.00;;;;;;5081143;28;20216;-57
2022/08/12 12:35:35;;;;;;;3.20;1.80;;;29.60;29.60;;;;;;5078370;28;20678;-58
2022/08/12 12:38:05;;;;;;;2.17;1.98;;;29.70;30.00;;;;;;5079589;28;20189;-58
2022/08/12 12:40:32;;;;;;;6.00;1.88;;;29.80;29.70;;;;;;5080033;28;20201;-57
2022/08/12 12:42:58;;;;;;;3.70;1.92;;;29.90;30.10;;;;;;5078243;28;20294;-58
2022/08/12 12:45:25;;;;;;;2.78;2.10;;;29.90;29.70;;;;;;5082304;28;20184;-62
2022/08/12 12:47:58;;;;;;;4.07;1.70;;;30.00;29.90;;;;;;5074920;28;20191;-57
2022/08/12 12:51:14;;;;;;;1.95;1.80;;;30.00;30.80;;;;;;5081266;28;20266;-58
2022/08/12 12:53:39;;;;;;;1.83;1.73;;;30.20;30.30;;;;;;5077887;28;20645;-58
2022/08/12 12:56:09;;;;;;;2.78;2.25;;;30.20;29.30;;;;;;5078971;28;20266;-58
2022/08/12 12:58:36;;;;;;;2.95;1.90;;;30.30;29.90;;;;;;5079384;28;20730;-58
2022/08/12 13:01:02;;;;;;;2.00;1.90;;;30.30;29.90;;;;;;5078179;28;20713;-57
2022/08/12 13:03:31;;;;;;;5.82;2.53;;;30.30;30.00;;;;;;5080942;28;20186;-57
2022/08/12 13:05:59;;;;;;;3.47;2.28;;;30.50;30.70;;;;;;5085383;28;20749;-57
2022/08/12 13:08:30;;;;;;;3.80;2.00;;;30.70;30.20;;;;;;5078313;28;20420;-59
2022/08/12 13:11:04;;;;;;;3.08;1.98;;;30.80;29.80;;;;;;5076092;28;20201;-57
2022/08/12 13:13:33;;;;;;;1.70;1.60;;;30.90;29.20;;;;;;5085733;28;20208;-58
2022/08/12 13:16:00;;;;;;;2.72;1.90;;;30.90;29.10;;;;;;5077241;28;20264;-57
2022/08/12 13:18:36;;;;;;;1.90;1.80;;;31.00;28.80;;;;;;5076614;28;20257;-58
2022/08/12 13:21:07;;;;;;;3.35;1.85;;;31.10;28.90;;;;;;5081963;28;20199;-57
2022/08/12 13:23:34;;;;;;;1.90;1.75;;;31.10;28.80;;;;;;5077915;28;20199;-58
2022/08/12 13:26:00;;;;;;;6.70;1.63;;;31.30;29.70;;;;;;5079351;28;20299;-57
2022/08/12 13:28:30;;;;;;;2.58;1.98;;;31.50;28.30;;;;;;5083659;28;20250;-58
2022/08/12 13:30:58;;;;;;;3.65;1.73;;;31.60;28.70;;;;;;5074025;28;20186;-57
2022/08/12 13:33:28;;;;;;;1.55;1.45;;;31.60;28.10;;;;;;5079880;28;20229;-57
2022/08/12 13:35:59;;;;;;;5.18;1.55;;;31.70;28.60;;;;;;5077049;28;20254;-57
2022/08/12 13:38:37;;;;;;;2.05;1.85;;;31.70;28.70;;;;;;5077821;28;20214;-58
2022/08/12 13:41:07;;;;;;;1.70;1.60;;;31.60;27.80;;;;;;5082308;28;20240;-58
2022/08/12 13:43:33;;;;;;;4.55;2.15;;;31.60;29.20;;;;;;5079222;28;21013;-59
2022/08/12 13:46:00;;;;;;;3.00;1.75;;;31.70;28.60;;;;;;5080451;28;20236;-58
2022/08/12 13:48:25;;;;;;;2.00;1.67;;;31.70;28.40;;;;;;5076040;28;20235;-59
2022/08/12 13:50:51;;;;;;;2.83;1.90;;;31.80;28.50;;;;;;5075115;28;20181;-58
2022/08/12 13:53:18;;;;;;;2.67;1.70;;;31.80;28.10;;;;;;5080009;28;20208;-58
2022/08/12 13:55:46;;;;;;;2.03;1.83;;;31.80;28.20;;;;;;5074682;28;20813;-57
2022/08/12 13:58:15;;;;;;;3.10;1.63;;;32.00;28.60;;;;;;5074497;28;20206;-59
2022/08/12 14:00:44;;;;;;;2.63;1.95;;;32.00;28.50;;;;;;5076946;28;20255;-59
2022/08/12 14:03:15;;;;;;;4.13;2.17;;;32.00;28.50;;;;;;5073891;28;20204;-58
2022/08/12 14:05:41;;;;;;;2.40;2.15;;;32.00;28.50;;;;;;5076348;28;20209;-58
2022/08/12 14:08:09;;;;;;;2.38;2.00;;;32.10;28.90;;;;;;5078087;28;20184;-59
2022/08/12 14:10:45;;;;;;;2.50;1.77;;;32.00;27.90;;;;;;5080637;28;20185;-57
2022/08/12 14:13:17;;;;;;;6.15;1.80;;;32.20;28.00;;;;;;5077154;28;20213;-58
2022/08/12 14:15:49;;;;;;;2.88;1.60;;;32.20;28.00;;;;;;5078939;28;20170;-58
2022/08/12 14:18:18;;;;;;;3.47;1.80;;;32.20;27.50;;;;;;5077903;28;20174;-58
2022/08/12 14:20:46;;;;;;;3.90;2.13;;;32.20;28.00;;;;;;5077833;28;20874;-58
2022/08/12 14:23:14;;;;;;;3.78;1.95;;;32.30;27.70;;;;;;5075621;28;20202;-58
2022/08/12 14:25:39;;;;;;;2.63;1.52;;;32.30;28.00;;;;;;5078645;28;20203;-58
2022/08/12 14:28:10;;;;;;;4.18;1.98;;;32.30;27.70;;;;;;5076441;28;20186;-58
2022/08/12 14:31:01;;;;;;;2.28;1.90;;;32.30;28.10;;;;;;5077965;28;20206;-58
2022/08/12 14:33:32;;;;;;;3.38;1.90;;;32.30;28.00;;;;;;5076561;28;20271;-58
2022/08/12 14:35:59;;;;;;;2.55;1.85;;;32.30;28.00;;;;;;5075198;28;20495;-58
2022/08/12 14:38:26;;;;;;;4.07;1.77;;;32.30;28.20;;;;;;5081882;28;20880;-58
2022/08/12 14:41:00;;;;;;;3.28;2.30;;;32.40;28.40;;;;;;5078874;28;20199;-58
2022/08/12 14:43:29;;;;;;;6.20;2.20;;;32.50;28.60;;;;;;5076855;28;20313;-58
2022/08/12 14:45:55;;;;;;;2.25;1.83;;;32.50;27.90;;;;;;5075032;28;20688;-59
2022/08/12 14:48:22;;;;;;;3.70;1.90;;;32.50;28.10;;;;;;5073323;28;20181;-58
2022/08/12 14:50:49;;;;;;;2.63;1.70;;;32.50;28.20;;;;;;5076864;28;20311;-58